createdAt,value
2023-02-06T00:00:10.894Z,94406.88
2023-02-06T00:02:37.376Z,94413.19
2023-02-06T00:05:04.041Z,94403.16
2023-02-06T00:07:30.568Z,94405.59
2023-02-06T00:09:56.994Z,94398.63
2023-02-06T00:12:23.419Z,94402.69
2023-02-06T00:14:49.895Z,94407.22
2023-02-06T00:17:16.366Z,94410.44
2023-02-06T00:19:44.492Z,94404.63
2023-02-06T00:22:13.401Z,94415.94
2023-02-06T00:24:43.022Z,94402.19
2023-02-06T00:27:09.444Z,94410.91
2023-02-06T00:29:35.906Z,94414.97
2023-02-06T00:32:02.405Z,94417.41
2023-02-06T00:34:28.849Z,94417.19
2023-02-06T00:36:55.288Z,94423.16
2023-02-06T00:39:21.742Z,94415.06
2023-02-06T00:41:48.190Z,94420.22
2023-02-06T00:44:14.645Z,94414.25
2023-02-06T00:46:41.761Z,94407.63
2023-02-06T00:49:08.258Z,94407.50
2023-02-06T00:51:38.704Z,94411.22
2023-02-06T00:54:06.736Z,94408.00
2023-02-06T00:56:33.366Z,94413.94
2023-02-06T00:58:59.946Z,94418.94
2023-02-06T01:01:27.035Z,94415.44
2023-02-06T01:03:54.525Z,94417.19
2023-02-06T01:06:20.957Z,94407.34
2023-02-06T01:08:50.842Z,94418.00
2023-02-06T01:11:20.657Z,94412.84
2023-02-06T01:13:47.480Z,94411.72
2023-02-06T01:16:18.249Z,94412.84
2023-02-06T01:18:44.738Z,94407.53
2023-02-06T01:21:14.236Z,94400.69
2023-02-06T01:23:41.222Z,94405.22
2023-02-06T01:26:12.094Z,94417.69
2023-02-06T01:28:41.512Z,94408.63
2023-02-06T01:31:29.040Z,94406.41
2023-02-06T01:33:57.982Z,94411.22
2023-02-06T01:36:25.411Z,94397.81
2023-02-06T01:38:52.523Z,94397.00
2023-02-06T01:41:22.054Z,94407.34
2023-02-06T01:44:12.453Z,94406.38
2023-02-06T01:46:41.007Z,94412.19
2023-02-06T01:49:12.420Z,94407.66
2023-02-06T01:51:39.996Z,94408.78
2023-02-06T01:54:08.141Z,94404.75
2023-02-06T01:56:43.603Z,94406.34
2023-02-06T01:59:12.368Z,94405.50
2023-02-06T02:01:40.369Z,94405.25
2023-02-06T02:04:10.705Z,94393.94
2023-02-06T02:06:37.128Z,94400.94
2023-02-06T02:09:06.832Z,94398.53
2023-02-06T02:11:36.441Z,94399.84
2023-02-06T02:14:06.367Z,94395.16
2023-02-06T02:17:06.268Z,94384.69
2023-02-06T02:19:57.736Z,94389.53
2023-02-06T02:22:42.185Z,94395.03
2023-02-06T02:25:38.869Z,94395.66
2023-02-06T02:28:19.043Z,94403.06
2023-02-06T02:31:17.753Z,94390.47
2023-02-06T02:34:21.768Z,94393.69
2023-02-06T02:37:11.366Z,94398.88
2023-02-06T02:39:47.812Z,94389.50
2023-02-06T02:42:38.311Z,94389.66
2023-02-06T02:45:19.095Z,94395.66
2023-02-06T02:47:52.637Z,94395.50
2023-02-06T02:50:21.337Z,94392.09
2023-02-06T02:52:47.954Z,94389.53
2023-02-06T02:55:23.692Z,94383.19
2023-02-06T02:58:02.922Z,94382.06
2023-02-06T03:00:31.386Z,94385.63
2023-02-06T03:02:58.485Z,94385.31
2023-02-06T03:05:26.997Z,94375.31
2023-02-06T03:08:10.028Z,94369.97
2023-02-06T03:10:53.526Z,94376.38
2023-02-06T03:13:30.642Z,94380.75
2023-02-06T03:16:07.747Z,94386.59
2023-02-06T03:18:49.930Z,94383.34
2023-02-06T03:21:19.732Z,94395.63
2023-02-06T03:23:49.696Z,94405.66
2023-02-06T03:26:20.757Z,94395.47
2023-02-06T03:28:54.251Z,94386.75
2023-02-06T03:31:27.870Z,94389.81
2023-02-06T03:34:06.265Z,94387.22
2023-02-06T03:36:33.048Z,94384.97
2023-02-06T03:38:59.975Z,94378.19
2023-02-06T03:41:34.349Z,94380.63
2023-02-06T03:44:02.983Z,94374.31
2023-02-06T03:46:32.661Z,94383.03
2023-02-06T03:49:03.817Z,94378.34
2023-02-06T03:51:35.235Z,94380.13
2023-02-06T03:54:05.747Z,94367.84
2023-02-06T03:56:43.222Z,94376.88
2023-02-06T03:59:09.932Z,94373.75
2023-02-06T04:01:45.338Z,94370.03
2023-02-06T04:04:15.359Z,94371.97
2023-02-06T04:06:41.897Z,94382.00
2023-02-06T04:09:08.335Z,94372.50
2023-02-06T04:11:34.799Z,94372.66
2023-02-06T04:14:01.222Z,94374.94
2023-02-06T04:16:27.686Z,94367.66
2023-02-06T04:18:54.149Z,94381.25
2023-02-06T04:21:20.642Z,94374.94
2023-02-06T04:23:47.103Z,94376.56
2023-02-06T04:26:13.540Z,94375.91
2023-02-06T04:28:39.956Z,94378.50
2023-02-06T04:31:06.484Z,94368.16
2023-02-06T04:33:33.011Z,94364.28
2023-02-06T04:35:59.442Z,94358.47
2023-02-06T04:38:25.954Z,94366.88
2023-02-06T04:40:52.384Z,94373.00
2023-02-06T04:43:18.805Z,94370.91
2023-02-06T04:45:46.571Z,94371.72
2023-02-06T04:48:13.036Z,94371.72
2023-02-06T04:50:39.466Z,94376.41
2023-02-06T04:53:05.887Z,94374.31
2023-02-06T04:55:32.378Z,94359.63
2023-02-06T04:57:58.815Z,94352.50
2023-02-06T05:00:25.258Z,94357.16
2023-02-06T05:02:51.749Z,94362.34
2023-02-06T05:05:18.344Z,94369.13
2023-02-06T05:07:44.788Z,94368.84
2023-02-06T05:10:11.426Z,94367.88
2023-02-06T05:12:37.917Z,94365.59
2023-02-06T05:15:04.954Z,94361.69
2023-02-06T05:17:31.424Z,94355.25
2023-02-06T05:19:58.490Z,94357.53
2023-02-06T05:22:25.384Z,94355.09
2023-02-06T05:24:51.814Z,94361.72
2023-02-06T05:27:18.311Z,94355.41
2023-02-06T05:29:44.774Z,94362.84
2023-02-06T05:32:11.231Z,94355.56
2023-02-06T05:34:37.661Z,94352.66
2023-02-06T05:37:04.097Z,94351.19
2023-02-06T05:39:30.559Z,94349.09
2023-02-06T05:41:56.985Z,94347.50
2023-02-06T05:44:23.465Z,94346.53
2023-02-06T05:46:49.905Z,94352.97
2023-02-06T05:49:16.836Z,94355.25
2023-02-06T05:51:43.264Z,94353.94
2023-02-06T05:54:09.810Z,94364.59
2023-02-06T05:56:36.277Z,94361.88
2023-02-06T05:59:02.872Z,94357.81
2023-02-06T06:01:29.332Z,94352.97
2023-02-06T06:03:56.227Z,94359.75
2023-02-06T06:06:22.716Z,94350.53
2023-02-06T06:08:49.172Z,94366.88
2023-02-06T06:11:15.630Z,94372.81
2023-02-06T06:13:42.148Z,94372.81
2023-02-06T06:16:08.764Z,94372.81
2023-02-06T06:18:35.201Z,94373.78
2023-02-06T06:21:01.633Z,94369.59
2023-02-06T06:23:28.040Z,94365.38
2023-02-06T06:25:54.464Z,94366.69
2023-02-06T06:28:22.230Z,94371.84
2023-02-06T06:30:48.667Z,94368.75
2023-02-06T06:33:16.393Z,94361.31
2023-02-06T06:35:42.914Z,94359.75
2023-02-06T06:38:09.347Z,94354.88
2023-02-06T06:40:35.808Z,94361.00
2023-02-06T06:43:02.300Z,94361.03
2023-02-06T06:45:28.828Z,94356.19
2023-02-06T06:47:55.275Z,94362.00
2023-02-06T06:50:21.716Z,94359.56
2023-02-06T06:52:48.191Z,94359.56
2023-02-06T06:55:14.676Z,94365.19
2023-02-06T06:57:41.141Z,94366.28
2023-02-06T07:00:09.220Z,94372.75
2023-02-06T07:02:35.668Z,94377.78
2023-02-06T07:05:02.123Z,94388.91
2023-02-06T07:07:28.611Z,94396.22
2023-02-06T07:09:55.244Z,94393.59
2023-02-06T07:12:21.721Z,94391.34
2023-02-06T07:14:48.208Z,94383.94
2023-02-06T07:17:14.632Z,94389.94
2023-02-06T07:19:41.057Z,94389.63
2023-02-06T07:22:07.567Z,94383.56
2023-02-06T07:24:34.002Z,94388.13
2023-02-06T07:27:00.424Z,94395.38
2023-02-06T07:29:26.920Z,94392.66
2023-02-06T07:31:53.425Z,94382.50
2023-02-06T07:34:19.882Z,94381.41
2023-02-06T07:36:46.327Z,94373.47
2023-02-06T07:39:12.761Z,94378.31
2023-02-06T07:41:39.232Z,94379.28
2023-02-06T07:44:06.101Z,94385.56
2023-02-06T07:46:33.716Z,94387.88
2023-02-06T07:49:00.170Z,94391.09
2023-02-06T07:51:26.641Z,94396.25
2023-02-06T07:53:53.215Z,94400.63
2023-02-06T07:56:20.896Z,94407.56
2023-02-06T07:58:52.367Z,94405.25
2023-02-06T08:01:19.751Z,94409.81
2023-02-06T08:03:48.559Z,94410.81
2023-02-06T08:06:15.885Z,94398.03
2023-02-06T08:08:43.459Z,94394.00
2023-02-06T08:11:15.662Z,94397.56
2023-02-06T08:13:43.048Z,94391.31
2023-02-06T08:16:17.306Z,94397.31
2023-02-06T08:18:44.282Z,94387.00
2023-02-06T08:21:22.383Z,94383.75
2023-02-06T08:23:54.938Z,94382.78
2023-02-06T08:26:22.047Z,94384.56
2023-02-06T08:28:50.073Z,94385.38
2023-02-06T08:31:20.698Z,94369.34
2023-02-06T08:33:48.032Z,94367.25
2023-02-06T08:36:15.664Z,94372.44
2023-02-06T08:38:42.548Z,94366.41
2023-02-06T08:41:18.225Z,94375.31
2023-02-06T08:43:46.308Z,94374.81
2023-02-06T08:46:15.875Z,94362.97
2023-02-06T08:48:42.650Z,94362.19
2023-02-06T08:51:10.436Z,94367.50
2023-02-06T08:53:37.946Z,94366.50
2023-02-06T08:56:08.311Z,94371.34
2023-02-06T08:58:35.882Z,94362.00
2023-02-06T09:01:10.610Z,94358.75
2023-02-06T09:03:37.035Z,94368.16
2023-02-06T09:06:09.749Z,94360.72
2023-02-06T09:08:37.847Z,94356.22
2023-02-06T09:11:11.795Z,94361.22
2023-02-06T09:13:39.339Z,94370.47
2023-02-06T09:16:06.652Z,94373.25
2023-02-06T09:18:34.167Z,94371.75
2023-02-06T09:21:17.024Z,94369.78
2023-02-06T09:23:46.309Z,94372.09
2023-02-06T09:26:17.970Z,94384.97
2023-02-06T09:28:45.096Z,94392.44
2023-02-06T09:31:11.913Z,94385.66
2023-02-06T09:33:39.464Z,94382.41
2023-02-06T09:36:08.856Z,94379.16
2023-02-06T09:38:36.445Z,94371.91
2023-02-06T09:41:11.678Z,94368.22
2023-02-06T09:43:38.218Z,94368.38
2023-02-06T09:46:09.362Z,94369.31
2023-02-06T09:48:39.222Z,94375.94
2023-02-06T09:51:18.859Z,94372.63
2023-02-06T09:54:08.961Z,94365.72
2023-02-06T09:56:52.818Z,94369.78
2023-02-06T09:59:43.217Z,94369.59
2023-02-06T10:02:32.752Z,94359.06
2023-02-06T10:05:14.930Z,94365.19
2023-02-06T10:07:57.268Z,94358.38
2023-02-06T10:10:38.445Z,94361.31
2023-02-06T10:13:18.896Z,94352.56
2023-02-06T10:15:48.810Z,94358.88
2023-02-06T10:18:24.095Z,94345.63
2023-02-06T10:20:55.056Z,94354.56
2023-02-06T10:23:30.634Z,94351.00
2023-02-06T10:26:27.705Z,94341.69
2023-02-06T10:28:57.217Z,94334.88
2023-02-06T10:31:44.895Z,94332.28
2023-02-06T10:34:39.096Z,94333.88
2023-02-06T10:37:27.390Z,94327.88
2023-02-06T10:40:29.549Z,94327.69
2023-02-06T10:43:27.936Z,94317.91
2023-02-06T10:46:06.418Z,94322.47
2023-02-06T10:48:41.870Z,94319.19
2023-02-06T10:51:21.926Z,94323.69
2023-02-06T10:53:59.645Z,94321.88
2023-02-06T10:56:29.503Z,94315.75
2023-02-06T10:58:59.770Z,94315.22
2023-02-06T11:01:29.653Z,94313.75
2023-02-06T11:04:03.206Z,94305.00
2023-02-06T11:06:30.476Z,94295.09
2023-02-06T11:08:57.107Z,94288.09
2023-02-06T11:11:29.651Z,94285.22
2023-02-06T11:14:05.939Z,94284.25
2023-02-06T11:16:36.023Z,94283.44
2023-02-06T11:19:15.103Z,94285.19
2023-02-06T11:21:41.459Z,94278.19
2023-02-06T11:24:16.170Z,94277.72
2023-02-06T11:26:49.581Z,94273.72
2023-02-06T11:29:20.134Z,94274.84
2023-02-06T11:31:58.390Z,94278.75
2023-02-06T11:35:09.913Z,94276.66
2023-02-06T11:37:39.498Z,94274.38
2023-02-06T11:40:23.062Z,94273.34
2023-02-06T11:42:55.342Z,94270.72
2023-02-06T11:45:33.073Z,94270.72
2023-02-06T11:48:00.051Z,94262.69
2023-02-06T11:50:35.005Z,94266.84
2023-02-06T11:53:17.844Z,94255.78
2023-02-06T11:55:46.655Z,94255.13
2023-02-06T11:58:13.004Z,94249.75
2023-02-06T12:00:42.170Z,94250.16
2023-02-06T12:03:32.476Z,94245.88
2023-02-06T12:06:15.655Z,94245.50
2023-02-06T12:08:54.162Z,94250.47
2023-02-06T12:11:25.226Z,94250.69
2023-02-06T12:14:04.661Z,94246.81
2023-02-06T12:16:34.361Z,94245.19
2023-02-06T12:19:01.197Z,94240.66
2023-02-06T12:21:42.573Z,94245.38
2023-02-06T12:24:29.882Z,94234.09
2023-02-06T12:27:00.419Z,94233.94
2023-02-06T12:29:37.945Z,94221.63
2023-02-06T12:32:16.073Z,94223.13
2023-02-06T12:35:00.471Z,94220.16
2023-02-06T12:37:45.501Z,94218.53
2023-02-06T12:40:36.038Z,94220.69
2023-02-06T12:43:09.439Z,94211.44
2023-02-06T12:45:53.193Z,94222.13
2023-02-06T12:48:45.795Z,94205.53
2023-02-06T12:51:32.515Z,94213.31
2023-02-06T12:54:04.151Z,94210.09
2023-02-06T12:56:36.928Z,94209.97
2023-02-06T12:59:09.509Z,94200.59
2023-02-06T13:01:36.925Z,94208.03
2023-02-06T13:04:06.981Z,94209.47
2023-02-06T13:06:47.483Z,94210.13
2023-02-06T13:09:21.186Z,94214.00
2023-02-06T13:11:47.932Z,94219.19
2023-02-06T13:14:29.277Z,94228.25
2023-02-06T13:17:11.645Z,94221.28
2023-02-06T13:19:40.990Z,94219.31
2023-02-06T13:22:10.373Z,94213.69
2023-02-06T13:24:38.399Z,94211.09
2023-02-06T13:27:07.804Z,94208.34
2023-02-06T13:29:38.543Z,94207.34
2023-02-06T13:32:11.272Z,94199.09
2023-02-06T13:34:45.183Z,94204.78
2023-02-06T13:37:35.049Z,94209.00
2023-02-06T13:40:23.344Z,94197.22
2023-02-06T13:42:56.777Z,94202.06
2023-02-06T13:45:32.129Z,94194.63
2023-02-06T13:48:28.699Z,94199.78
2023-02-06T13:51:32.847Z,94202.72
2023-02-06T13:54:35.566Z,94203.66
2023-02-06T13:57:20.498Z,94211.09
2023-02-06T13:59:53.047Z,94213.19
2023-02-06T14:02:27.547Z,94221.44
2023-02-06T14:04:54.495Z,94218.16
2023-02-06T14:07:46.871Z,94215.78
2023-02-06T14:11:10.407Z,94202.41
2023-02-06T14:13:45.594Z,94205.44
2023-02-06T14:16:37.147Z,94203.03
2023-02-06T14:19:06.127Z,94208.66
2023-02-06T14:21:58.798Z,94201.56
2023-02-06T14:24:49.804Z,94200.13
2023-02-06T14:27:51.262Z,94198.97
2023-02-06T14:30:39.931Z,94206.53
2023-02-06T14:33:18.174Z,94214.78
2023-02-06T14:36:16.865Z,94204.78
2023-02-06T14:39:03.641Z,94202.19
2023-02-06T14:41:31.612Z,94206.41
2023-02-06T14:43:59.482Z,94211.53
2023-02-06T14:46:27.281Z,94198.19
2023-02-06T14:48:57.110Z,94198.50
2023-02-06T14:51:35.305Z,94209.47
2023-02-06T14:54:07.248Z,94203.47
2023-02-06T14:56:38.588Z,94207.03
2023-02-06T14:59:23.210Z,94209.63
2023-02-06T15:01:52.370Z,94204.59
2023-02-06T15:04:26.167Z,94201.06
2023-02-06T15:06:58.069Z,94209.47
2023-02-06T15:09:43.870Z,94211.72
2023-02-06T15:12:24.584Z,94215.25
2023-02-06T15:14:54.026Z,94217.38
2023-02-06T15:17:22.102Z,94221.06
2023-02-06T15:19:49.033Z,94216.56
2023-02-06T15:22:23.706Z,94209.13
2023-02-06T15:25:08.551Z,94222.19
2023-02-06T15:27:37.381Z,94220.09
2023-02-06T15:30:21.016Z,94223.63
2023-02-06T15:32:51.087Z,94237.81
2023-02-06T15:35:21.700Z,94222.00
2023-02-06T15:37:48.912Z,94216.03
2023-02-06T15:40:20.852Z,94222.97
2023-02-06T15:42:48.736Z,94223.63
2023-02-06T15:45:22.873Z,94220.06
2023-02-06T15:47:54.297Z,94227.16
2023-02-06T15:50:26.070Z,94236.53
2023-02-06T15:52:52.649Z,94227.81
2023-02-06T15:55:34.532Z,94222.97
2023-02-06T15:58:04.112Z,94228.44
2023-02-06T16:00:34.423Z,94221.16
2023-02-06T16:03:05.405Z,94220.84
2023-02-06T16:05:35.149Z,94223.88
2023-02-06T16:08:03.804Z,94222.28
2023-02-06T16:10:35.621Z,94219.22
2023-02-06T16:13:09.066Z,94227.09
2023-02-06T16:15:38.450Z,94222.22
2023-02-06T16:18:23.691Z,94224.78
2023-02-06T16:20:50.862Z,94230.50
2023-02-06T16:23:28.859Z,94226.84
2023-02-06T16:26:19.485Z,94225.28
2023-02-06T16:29:01.879Z,94216.75
2023-02-06T16:31:31.083Z,94230.78
2023-02-06T16:34:03.281Z,94228.34
2023-02-06T16:36:32.450Z,94230.25
2023-02-06T16:39:04.090Z,94245.00
2023-02-06T16:41:41.017Z,94232.81
2023-02-06T16:44:13.555Z,94237.78
2023-02-06T16:46:40.452Z,94255.16
2023-02-06T16:49:15.808Z,94252.22
2023-02-06T16:51:44.112Z,94252.88
2023-02-06T16:54:27.356Z,94263.50
2023-02-06T16:56:55.841Z,94268.25
2023-02-06T16:59:22.367Z,94281.63
2023-02-06T17:01:49.058Z,94273.31
2023-02-06T17:04:15.720Z,94277.41
2023-02-06T17:06:42.406Z,94272.84
2023-02-06T17:09:10.951Z,94275.19
2023-02-06T17:11:38.677Z,94267.78
2023-02-06T17:14:05.957Z,94269.47
2023-02-06T17:16:33.635Z,94270.44
2023-02-06T17:19:00.165Z,94273.78
2023-02-06T17:21:29.674Z,94277.22
2023-02-06T17:23:56.090Z,94266.59
2023-02-06T17:26:23.418Z,94264.66
2023-02-06T17:28:50.693Z,94267.09
2023-02-06T17:31:18.087Z,94257.06
2023-02-06T17:33:44.606Z,94266.41
2023-02-06T17:36:18.344Z,94261.78
2023-02-06T17:38:45.200Z,94265.00
2023-02-06T17:41:11.675Z,94262.44
2023-02-06T17:43:38.098Z,94254.69
2023-02-06T17:46:05.712Z,94240.03
2023-02-06T17:48:36.338Z,94248.88
2023-02-06T17:51:04.955Z,94242.41
2023-02-06T17:53:31.397Z,94235.31
2023-02-06T17:55:57.918Z,94236.94
2023-02-06T17:58:24.384Z,94226.63
2023-02-06T18:00:50.901Z,94234.22
2023-02-06T18:03:18.436Z,94236.94
2023-02-06T18:05:47.095Z,94241.66
2023-02-06T18:08:14.305Z,94237.94
2023-02-06T18:10:40.748Z,94226.47
2023-02-06T18:13:07.210Z,94233.91
2023-02-06T18:15:33.750Z,94228.41
2023-02-06T18:18:00.220Z,94222.56
2023-02-06T18:20:26.689Z,94215.97
2023-02-06T18:22:53.122Z,94220.16
2023-02-06T18:25:19.584Z,94199.53
2023-02-06T18:27:46.283Z,94192.13
2023-02-06T18:30:14.575Z,94192.75
2023-02-06T18:32:41.218Z,94192.75
2023-02-06T18:35:08.628Z,94186.44
2023-02-06T18:37:35.429Z,94184.84
2023-02-06T18:40:02.702Z,94173.72
2023-02-06T18:42:47.531Z,94174.03
2023-02-06T18:45:14.079Z,94177.59
2023-02-06T18:47:42.275Z,94175.66
2023-02-06T18:50:10.990Z,94172.13
2023-02-06T18:52:38.442Z,94168.56
2023-02-06T18:55:07.892Z,94165.34
2023-02-06T18:57:34.809Z,94142.13
2023-02-06T19:00:01.276Z,94149.03
2023-02-06T19:02:28.254Z,94152.44
2023-02-06T19:04:57.558Z,94144.84
2023-02-06T19:07:24.543Z,94146.63
2023-02-06T19:09:56.298Z,94136.97
2023-02-06T19:12:22.744Z,94132.91
2023-02-06T19:14:49.373Z,94133.88
2023-02-06T19:17:15.854Z,94136.31
2023-02-06T19:19:42.281Z,94127.94
2023-02-06T19:22:08.719Z,94141.13
2023-02-06T19:24:35.280Z,94135.00
2023-02-06T19:27:02.054Z,94142.25
2023-02-06T19:29:35.668Z,94130.50
2023-02-06T19:32:04.847Z,94143.69
2023-02-06T19:34:33.475Z,94138.84
2023-02-06T19:37:01.367Z,94139.97
2023-02-06T19:39:29.997Z,94129.84
2023-02-06T19:41:56.464Z,94131.75
2023-02-06T19:44:22.885Z,94129.34
2023-02-06T19:46:49.482Z,94121.94
2023-02-06T19:49:16.044Z,94132.53
2023-02-06T19:51:44.738Z,94128.34
2023-02-06T19:54:11.164Z,94130.78
2023-02-06T19:56:41.569Z,94133.34
2023-02-06T19:59:18.160Z,94135.63
2023-02-06T20:02:03.005Z,94135.94
2023-02-06T20:04:34.084Z,94134.00
2023-02-06T20:07:01.515Z,94131.56
2023-02-06T20:09:28.560Z,94135.09
2023-02-06T20:11:56.058Z,94126.91
2023-02-06T20:14:23.564Z,94117.50
2023-02-06T20:16:50.358Z,94121.50
2023-02-06T20:19:22.959Z,94122.97
2023-02-06T20:21:52.821Z,94114.91
2023-02-06T20:24:22.430Z,94114.25
2023-02-06T20:26:52.975Z,94118.16
2023-02-06T20:29:26.674Z,94101.06
2023-02-06T20:31:54.424Z,94097.16
2023-02-06T20:34:21.857Z,94111.28
2023-02-06T20:36:49.620Z,94104.19
2023-02-06T20:39:16.838Z,94114.53
2023-02-06T20:41:45.309Z,94104.06
2023-02-06T20:44:13.602Z,94112.78
2023-02-06T20:46:40.990Z,94118.25
2023-02-06T20:49:13.390Z,94115.53
2023-02-06T20:51:39.880Z,94108.13
2023-02-06T20:54:06.560Z,94100.72
2023-02-06T20:56:33.689Z,94115.22
2023-02-06T20:59:01.214Z,94116.50
2023-02-06T21:01:29.562Z,94106.84
2023-02-06T21:03:59.213Z,94105.22
2023-02-06T21:06:26.012Z,94106.38
2023-02-06T21:08:57.163Z,94100.91
2023-02-06T21:11:24.160Z,94092.03
2023-02-06T21:13:50.695Z,94097.16
2023-02-06T21:16:17.280Z,94094.22
2023-02-06T21:18:43.760Z,94083.44
2023-02-06T21:21:13.507Z,94075.09
2023-02-06T21:23:41.815Z,94075.91
2023-02-06T21:26:10.747Z,94070.72
2023-02-06T21:28:38.021Z,94065.22
2023-02-06T21:31:11.853Z,94064.81
2023-02-06T21:33:38.359Z,94058.75
2023-02-06T21:36:06.888Z,94064.47
2023-02-06T21:38:34.971Z,94070.59
2023-02-06T21:41:06.320Z,94073.22
2023-02-06T21:43:33.783Z,94076.09
2023-02-06T21:46:00.360Z,94072.28
2023-02-06T21:48:27.045Z,94072.72
2023-02-06T21:50:53.548Z,94076.09
2023-02-06T21:53:20.216Z,94063.72
2023-02-06T21:55:46.686Z,94061.78
2023-02-06T21:58:14.622Z,94061.00
2023-02-06T22:00:46.314Z,94045.03
2023-02-06T22:03:13.631Z,94051.94
2023-02-06T22:05:40.258Z,94050.81
2023-02-06T22:08:06.727Z,94046.97
2023-02-06T22:10:36.832Z,94054.03
2023-02-06T22:13:05.257Z,94048.72
2023-02-06T22:15:32.863Z,94037.75
2023-02-06T22:17:59.424Z,94045.97
2023-02-06T22:20:26.211Z,94036.00
2023-02-06T22:22:54.522Z,94047.69
2023-02-06T22:25:21.574Z,94049.03
2023-02-06T22:27:48.088Z,94039.56
2023-02-06T22:30:14.610Z,94023.91
2023-02-06T22:32:41.171Z,94030.41
2023-02-06T22:35:07.808Z,94031.63
2023-02-06T22:37:34.459Z,94025.66
2023-02-06T22:40:00.916Z,94023.44
2023-02-06T22:42:27.367Z,94024.88
2023-02-06T22:44:53.788Z,94030.69
2023-02-06T22:47:20.323Z,94025.38
2023-02-06T22:49:46.830Z,94023.59
2023-02-06T22:52:31.917Z,94033.91
2023-02-06T22:54:58.328Z,94021.97
2023-02-06T22:57:24.808Z,94028.59
2023-02-06T22:59:51.227Z,94029.38
2023-02-06T23:02:17.661Z,94024.72
2023-02-06T23:04:44.105Z,94013.91
2023-02-06T23:07:10.538Z,94014.56
2023-02-06T23:09:38.307Z,94011.47
2023-02-06T23:12:05.396Z,94017.38
2023-02-06T23:14:33.102Z,94008.88
2023-02-06T23:17:00.826Z,94019.28
2023-02-06T23:19:27.462Z,94026.50
2023-02-06T23:21:54.050Z,94026.69
2023-02-06T23:24:20.718Z,94029.56
2023-02-06T23:26:49.140Z,94017.00
2023-02-06T23:29:17.903Z,94015.03
2023-02-06T23:31:45.875Z,94011.47
2023-02-06T23:34:12.607Z,94016.41
2023-02-06T23:36:39.077Z,94014.59
2023-02-06T23:39:05.828Z,94015.03
2023-02-06T23:41:32.720Z,94030.13
2023-02-06T23:44:04.696Z,94032.13
2023-02-06T23:46:34.462Z,94033.00
2023-02-06T23:49:00.916Z,94011.94
2023-02-06T23:51:27.930Z,94014.44
2023-02-06T23:53:54.498Z,94001.00
2023-02-06T23:56:27.492Z,93999.69
2023-02-06T23:58:55.318Z,94001.91
